Twin Cities, Minnesota
Current Conditions -  °F | °C
As of 4:20 AM on Monday 26 Jan 2015 (Local Time) from KMSP Reporting Station
Overcast Overcast  
Wind Chill: 16°   Ceiling: 1300
Heat Index: 26°   Visibility: 10mi
Dew Point: 20°   Wind: 12mph
Humidity: 78%   Direction: 160°SSE
Pressure: 29.77"   Gusts: NA
Location:  44.8695°N, 93.2126°W
Report Text: KMSP 261020Z 16010KT 10SM BKN013 OVC026 M03/M07 A2977 RMK AO2 T10331067
Loading
Personal Weather Stations






























Interactive Weather Map New forecast layout! Learn more

10-Day Weather Forecast

Advertisements
Track Severe Weather on mobile